createdAt,value
2022-12-17T00:00:04.016Z,1004.2
2022-12-17T00:01:20.314Z,1004.2
2022-12-17T00:02:36.617Z,1004.2
2022-12-17T00:03:52.885Z,1004.2
2022-12-17T00:05:09.192Z,1004.2
2022-12-17T00:06:24.490Z,1004.2
2022-12-17T00:07:40.785Z,1004.2
2022-12-17T00:08:57.092Z,1004.2
2022-12-17T00:10:13.399Z,1004.2
2022-12-17T00:11:29.695Z,1004.3
2022-12-17T00:12:45.989Z,1004.2
2022-12-17T00:14:02.269Z,1004.3
2022-12-17T00:15:18.557Z,1004.3
2022-12-17T00:16:34.863Z,1004.3
2022-12-17T00:17:51.165Z,1004.3
2022-12-17T00:19:07.446Z,1004.4
2022-12-17T00:20:23.742Z,1004.4
2022-12-17T00:21:40.042Z,1004.4
2022-12-17T00:22:55.348Z,1004.4
2022-12-17T00:24:11.646Z,1004.4
2022-12-17T00:25:27.956Z,1004.4
2022-12-17T00:26:44.247Z,1004.4
2022-12-17T00:28:00.528Z,1004.4
2022-12-17T00:29:16.810Z,1004.5
2022-12-17T00:30:33.118Z,1004.5
2022-12-17T00:31:49.411Z,1004.5
2022-12-17T00:33:05.704Z,1004.5
2022-12-17T00:34:21.987Z,1004.5
2022-12-17T00:35:38.307Z,1004.5
2022-12-17T00:36:54.605Z,1004.5
2022-12-17T00:38:10.890Z,1004.5
2022-12-17T00:39:27.192Z,1004.5
2022-12-17T00:40:42.505Z,1004.6
2022-12-17T00:41:58.787Z,1004.5
2022-12-17T00:43:15.070Z,1004.5
2022-12-17T00:44:31.380Z,1004.6
2022-12-17T00:45:47.662Z,1004.5
2022-12-17T00:47:03.969Z,1004.6
2022-12-17T00:48:20.264Z,1004.6
2022-12-17T00:49:36.551Z,1004.6
2022-12-17T00:50:52.860Z,1004.6
2022-12-17T00:52:09.154Z,1004.6
2022-12-17T00:53:25.447Z,1004.6
2022-12-17T00:54:41.720Z,1004.7
2022-12-17T00:55:58.036Z,1004.6
2022-12-17T00:57:14.335Z,1004.6
2022-12-17T00:58:29.640Z,1004.6
2022-12-17T00:59:45.926Z,1004.6
2022-12-17T01:01:02.232Z,1004.7
2022-12-17T01:02:18.521Z,1004.7
2022-12-17T01:03:34.817Z,1004.7
2022-12-17T01:04:51.115Z,1004.6
2022-12-17T01:06:07.396Z,1004.7
2022-12-17T01:07:23.702Z,1004.7
2022-12-17T01:08:39.978Z,1004.7
2022-12-17T01:09:56.298Z,1004.7
2022-12-17T01:11:12.579Z,1004.8
2022-12-17T01:12:28.886Z,1004.8
2022-12-17T01:13:45.169Z,1004.7
2022-12-17T01:15:01.464Z,1004.7
2022-12-17T01:16:16.774Z,1004.7
2022-12-17T01:17:33.087Z,1004.8
2022-12-17T01:18:49.360Z,1004.7
2022-12-17T01:20:05.673Z,1004.7
2022-12-17T01:21:21.965Z,1004.7
2022-12-17T01:22:38.246Z,1004.7
2022-12-17T01:23:54.533Z,1004.8
2022-12-17T01:25:10.832Z,1004.9
2022-12-17T01:26:27.143Z,1004.9
2022-12-17T01:27:43.437Z,1004.9
2022-12-17T01:28:59.706Z,1004.9
2022-12-17T01:30:16.030Z,1004.9
2022-12-17T01:31:32.326Z,1004.9
2022-12-17T01:32:48.607Z,1005
2022-12-17T01:34:03.914Z,1005
2022-12-17T01:35:20.212Z,1004.9
2022-12-17T01:36:36.496Z,1004.9
2022-12-17T01:37:52.790Z,1004.9
2022-12-17T01:39:09.112Z,1004.9
2022-12-17T01:40:25.405Z,1004.9
2022-12-17T01:41:41.693Z,1004.9
2022-12-17T01:42:57.997Z,1005
2022-12-17T01:44:14.274Z,1005
2022-12-17T01:45:30.574Z,1005
2022-12-17T01:46:46.877Z,1005
2022-12-17T01:48:03.155Z,1005
2022-12-17T01:49:19.467Z,1005
2022-12-17T01:50:35.734Z,1005
2022-12-17T01:51:51.073Z,1005
2022-12-17T01:53:07.354Z,1005
2022-12-17T01:54:23.657Z,1005
2022-12-17T01:55:39.958Z,1005
2022-12-17T01:56:56.230Z,1005
2022-12-17T01:58:12.529Z,1005
2022-12-17T01:59:28.843Z,1005.1
2022-12-17T02:00:45.137Z,1005.1
2022-12-17T02:02:01.420Z,1005.1
2022-12-17T02:03:17.696Z,1005.1
2022-12-17T02:04:34.015Z,1005.1
2022-12-17T02:05:50.310Z,1005.1
2022-12-17T02:07:06.580Z,1005.1
2022-12-17T02:08:22.896Z,1005.2
2022-12-17T02:09:38.217Z,1005.1
2022-12-17T02:10:54.498Z,1005.1
2022-12-17T02:12:10.796Z,1005.2
2022-12-17T02:13:27.080Z,1005.2
2022-12-17T02:14:43.378Z,1005.2
2022-12-17T02:15:59.691Z,1005.2
2022-12-17T02:17:15.967Z,1005.2
2022-12-17T02:18:32.266Z,1005.2
2022-12-17T02:19:48.571Z,1005.2
2022-12-17T02:21:04.861Z,1005.2
2022-12-17T02:22:21.134Z,1005.2
2022-12-17T02:23:37.453Z,1005.2
2022-12-17T02:24:53.753Z,1005.3
2022-12-17T02:26:10.031Z,1005.2
2022-12-17T02:27:25.357Z,1005.2
2022-12-17T02:28:41.643Z,1005.2
2022-12-17T02:29:57.943Z,1005.2
2022-12-17T02:31:14.240Z,1005.2
2022-12-17T02:32:30.534Z,1005.2
2022-12-17T02:33:46.833Z,1005.2
2022-12-17T02:35:03.127Z,1005.2
2022-12-17T02:36:19.408Z,1005.3
2022-12-17T02:37:35.689Z,1005.2
2022-12-17T02:38:52.014Z,1005.2
2022-12-17T02:40:08.301Z,1005.3
2022-12-17T02:41:24.580Z,1005.3
2022-12-17T02:42:40.885Z,1005.3
2022-12-17T02:43:57.176Z,1005.3
2022-12-17T02:45:12.494Z,1005.3
2022-12-17T02:46:28.796Z,1005.3
2022-12-17T02:47:45.088Z,1005.4
2022-12-17T02:49:01.370Z,1005.4
2022-12-17T02:50:17.654Z,1005.4
2022-12-17T02:51:33.956Z,1005.4
2022-12-17T02:52:50.244Z,1005.4
2022-12-17T02:54:06.539Z,1005.4
2022-12-17T02:55:22.839Z,1005.4
2022-12-17T02:56:39.132Z,1005.4
2022-12-17T02:57:55.421Z,1005.4
2022-12-17T02:59:11.718Z,1005.4
2022-12-17T03:00:28.021Z,1005.4
2022-12-17T03:01:44.306Z,1005.4
2022-12-17T03:02:59.628Z,1005.4
2022-12-17T03:04:15.926Z,1005.4
2022-12-17T03:05:32.215Z,1005.4
2022-12-17T03:06:48.504Z,1005.4
2022-12-17T03:08:04.809Z,1005.4
2022-12-17T03:09:21.097Z,1005.5
2022-12-17T03:10:37.396Z,1005.5
2022-12-17T03:11:53.687Z,1005.4
2022-12-17T03:13:09.986Z,1005.5
2022-12-17T03:14:26.269Z,1005.5
2022-12-17T03:15:42.577Z,1005.5
2022-12-17T03:16:58.854Z,1005.5
2022-12-17T03:18:15.156Z,1005.5
2022-12-17T03:19:31.446Z,1005.5
2022-12-17T03:20:46.772Z,1005.5
2022-12-17T03:22:03.060Z,1005.6
2022-12-17T03:23:19.358Z,1005.5
2022-12-17T03:24:35.645Z,1005.5
2022-12-17T03:25:51.938Z,1005.6
2022-12-17T03:27:08.239Z,1005.5
2022-12-17T03:28:24.534Z,1005.5
2022-12-17T03:29:40.816Z,1005.6
2022-12-17T03:32:13.415Z,1005.5
2022-12-17T03:33:29.716Z,1005.5
2022-12-17T03:34:46.010Z,1005.6
2022-12-17T03:36:02.304Z,1005.6
2022-12-17T03:37:18.597Z,1005.6
2022-12-17T03:38:33.913Z,1005.5
2022-12-17T03:39:50.193Z,1005.5
2022-12-17T03:41:06.486Z,1005.6
2022-12-17T03:42:22.792Z,1005.6
2022-12-17T03:43:39.073Z,1005.6
2022-12-17T03:44:55.374Z,1005.6
2022-12-17T03:46:11.677Z,1005.6
2022-12-17T03:47:27.958Z,1005.6
2022-12-17T03:48:44.254Z,1005.7
2022-12-17T03:50:00.548Z,1005.7
2022-12-17T03:51:16.855Z,1005.7
2022-12-17T03:52:33.149Z,1005.7
2022-12-17T03:53:49.434Z,1005.7
2022-12-17T03:55:05.742Z,1005.7
2022-12-17T03:56:21.052Z,1005.7
2022-12-17T03:57:37.343Z,1005.7
2022-12-17T03:58:53.638Z,1005.7
2022-12-17T04:00:09.939Z,1005.7
2022-12-17T04:01:26.229Z,1005.7
2022-12-17T04:02:42.532Z,1005.8
2022-12-17T04:03:58.821Z,1005.8
2022-12-17T04:05:14.127Z,1005.8
2022-12-17T04:06:30.421Z,1005.8
2022-12-17T04:07:46.714Z,1005.8
2022-12-17T04:09:03.023Z,1005.8
2022-12-17T04:10:19.307Z,1005.9
2022-12-17T04:11:35.612Z,1005.9
2022-12-17T04:12:51.899Z,1005.9
2022-12-17T04:14:08.192Z,1005.9
2022-12-17T04:15:24.489Z,1006
2022-12-17T04:16:40.786Z,1006
2022-12-17T04:17:57.000Z,1006
2022-12-17T04:19:13.378Z,1006
2022-12-17T04:20:29.662Z,1006
2022-12-17T04:21:44.969Z,1006.1
2022-12-17T04:23:01.263Z,1006.1
2022-12-17T04:24:17.560Z,1006.1
2022-12-17T04:25:33.857Z,1006
2022-12-17T04:26:50.149Z,1006
2022-12-17T04:28:06.449Z,1006.1
2022-12-17T04:29:22.738Z,1006.1
2022-12-17T04:30:39.041Z,1006.1
2022-12-17T04:31:55.337Z,1006.1
2022-12-17T04:33:11.623Z,1006.2
2022-12-17T04:34:27.921Z,1006.1
2022-12-17T04:35:44.214Z,1006.2
2022-12-17T04:37:00.513Z,1006.1
2022-12-17T04:38:15.828Z,1006.1
2022-12-17T04:39:32.110Z,1006.1
2022-12-17T04:40:48.418Z,1006.1
2022-12-17T04:42:04.714Z,1006.1
2022-12-17T04:43:20.999Z,1006.2
2022-12-17T04:44:37.286Z,1006.1
2022-12-17T04:45:53.588Z,1006.2
2022-12-17T04:47:09.879Z,1006.1
2022-12-17T04:48:26.175Z,1006.1
2022-12-17T04:49:42.465Z,1006.2
2022-12-17T04:50:58.767Z,1006.1
2022-12-17T04:52:15.060Z,1006.2
2022-12-17T04:53:31.349Z,1006.2
2022-12-17T04:54:46.678Z,1006.2
2022-12-17T04:56:02.956Z,1006.2
2022-12-17T04:57:19.268Z,1006.2
2022-12-17T04:58:35.544Z,1006.2
2022-12-17T04:59:51.848Z,1006.3
2022-12-17T05:01:08.135Z,1006.3
2022-12-17T05:02:24.429Z,1006.3
2022-12-17T05:03:40.727Z,1006.3
2022-12-17T05:04:57.016Z,1006.3
2022-12-17T05:06:13.313Z,1006.4
2022-12-17T05:07:29.624Z,1006.4
2022-12-17T05:08:45.918Z,1006.5
2022-12-17T05:10:02.209Z,1006.5
2022-12-17T05:11:18.497Z,1006.5
2022-12-17T05:12:33.817Z,1006.5
2022-12-17T05:13:50.112Z,1006.5
2022-12-17T05:15:06.406Z,1006.5
2022-12-17T05:16:22.694Z,1006.6
2022-12-17T05:17:38.997Z,1006.6
2022-12-17T05:18:55.291Z,1006.6
2022-12-17T05:20:11.570Z,1006.6
2022-12-17T05:21:27.864Z,1006.6
2022-12-17T05:22:44.169Z,1006.6
2022-12-17T05:24:00.457Z,1006.6
2022-12-17T05:25:16.754Z,1006.6
2022-12-17T05:26:33.043Z,1006.6
2022-12-17T05:27:49.338Z,1006.6
2022-12-17T05:29:05.652Z,1006.6
2022-12-17T05:30:20.955Z,1006.7
2022-12-17T05:31:37.247Z,1006.6
2022-12-17T05:32:53.534Z,1006.7
2022-12-17T05:34:09.834Z,1006.7
2022-12-17T05:35:26.127Z,1006.7
2022-12-17T05:36:42.423Z,1006.7
2022-12-17T05:37:58.726Z,1006.7
2022-12-17T05:39:15.022Z,1006.7
2022-12-17T05:40:31.303Z,1006.7
2022-12-17T05:41:47.613Z,1006.7
2022-12-17T05:43:03.900Z,1006.7
2022-12-17T05:44:20.201Z,1006.8
2022-12-17T05:45:36.492Z,1006.8
2022-12-17T05:46:52.791Z,1006.8
2022-12-17T05:48:08.096Z,1006.8
2022-12-17T05:49:24.397Z,1006.8
2022-12-17T05:50:40.690Z,1006.9
2022-12-17T05:51:56.975Z,1006.8
2022-12-17T05:53:13.279Z,1006.8
2022-12-17T05:54:29.575Z,1006.9
2022-12-17T05:55:45.863Z,1006.9
2022-12-17T05:57:02.161Z,1007
2022-12-17T05:58:18.455Z,1007
2022-12-17T05:59:34.749Z,1006.9
2022-12-17T06:00:51.038Z,1007
2022-12-17T06:02:07.336Z,1007
2022-12-17T06:03:23.638Z,1006.9
2022-12-17T06:04:39.920Z,1006.9
2022-12-17T06:05:55.235Z,1007
2022-12-17T06:07:11.537Z,1007
2022-12-17T06:08:27.826Z,1007
2022-12-17T06:09:44.122Z,1007
2022-12-17T06:11:00.410Z,1007
2022-12-17T06:12:16.706Z,1007
2022-12-17T06:13:33.004Z,1007.1
2022-12-17T06:14:49.309Z,1007.1
2022-12-17T06:16:05.598Z,1007.1
2022-12-17T06:17:21.890Z,1007.1
2022-12-17T06:18:38.184Z,1007.1
2022-12-17T06:19:54.485Z,1007.1
2022-12-17T06:21:10.771Z,1007.1
2022-12-17T06:22:27.082Z,1007.1
2022-12-17T06:23:42.383Z,1007.2
2022-12-17T06:24:58.670Z,1007.2
2022-12-17T06:26:14.979Z,1007.2
2022-12-17T06:27:31.273Z,1007.2
2022-12-17T06:28:47.555Z,1007.2
2022-12-17T06:30:03.855Z,1007.2
2022-12-17T06:31:20.144Z,1007.2
2022-12-17T06:32:36.424Z,1007.3
2022-12-17T06:33:52.674Z,1007.3
2022-12-17T06:35:08.904Z,1007.2
2022-12-17T06:36:25.139Z,1007.3
2022-12-17T06:37:41.385Z,1007.3
2022-12-17T06:38:57.646Z,1007.3
2022-12-17T06:40:13.877Z,1007.3
2022-12-17T06:41:29.147Z,1007.3
2022-12-17T06:42:45.386Z,1007.3
2022-12-17T06:44:01.618Z,1007.4
2022-12-17T06:45:17.864Z,1007.3
2022-12-17T06:46:34.107Z,1007.4
2022-12-17T06:47:50.350Z,1007.4
2022-12-17T06:49:06.580Z,1007.5
2022-12-17T06:50:22.821Z,1007.4
2022-12-17T06:51:39.059Z,1007.4
2022-12-17T06:52:55.297Z,1007.5
2022-12-17T06:54:11.555Z,1007.4
2022-12-17T06:55:27.794Z,1007.5
2022-12-17T06:56:44.030Z,1007.5
2022-12-17T06:58:00.263Z,1007.6
2022-12-17T06:59:16.622Z,1007.6
2022-12-17T07:00:32.873Z,1007.6
2022-12-17T07:01:49.116Z,1007.6
2022-12-17T07:03:05.365Z,1007.6
2022-12-17T07:04:21.598Z,1007.6
2022-12-17T07:05:37.000Z,1007.6
2022-12-17T07:06:54.084Z,1007.6
2022-12-17T07:08:10.319Z,1007.6
2022-12-17T07:09:26.548Z,1007.6
2022-12-17T07:10:42.790Z,1007.6
2022-12-17T07:11:59.037Z,1007.6
2022-12-17T07:13:15.284Z,1007.6
2022-12-17T07:14:31.518Z,1007.6
2022-12-17T07:15:46.784Z,1007.6
2022-12-17T07:17:03.009Z,1007.7
2022-12-17T07:18:19.260Z,1007.7
2022-12-17T07:19:35.495Z,1007.7
2022-12-17T07:20:51.743Z,1007.8
2022-12-17T07:22:07.978Z,1007.8
2022-12-17T07:23:24.228Z,1007.8
2022-12-17T07:24:40.455Z,1007.8
2022-12-17T07:25:56.704Z,1007.9
2022-12-17T07:27:12.951Z,1007.9
2022-12-17T07:28:29.177Z,1007.9
2022-12-17T07:29:45.427Z,1007.9
2022-12-17T07:31:01.660Z,1007.9
2022-12-17T07:32:16.921Z,1007.9
2022-12-17T07:33:33.165Z,1007.9
2022-12-17T07:34:49.411Z,1007.8
2022-12-17T07:36:05.633Z,1007.9
2022-12-17T07:37:21.883Z,1008
2022-12-17T07:38:38.120Z,1008
2022-12-17T07:39:54.372Z,1008
2022-12-17T07:41:10.593Z,1008
2022-12-17T07:42:26.846Z,1008
2022-12-17T07:43:43.087Z,1008
2022-12-17T07:44:59.326Z,1008
2022-12-17T07:46:15.567Z,1008
2022-12-17T07:47:31.816Z,1008
2022-12-17T07:48:47.073Z,1008
2022-12-17T07:50:03.311Z,1008
2022-12-17T07:51:19.548Z,1008
2022-12-17T07:52:35.796Z,1008
2022-12-17T07:53:52.019Z,1008.1
2022-12-17T07:55:08.257Z,1008.1
2022-12-17T07:56:24.501Z,1008.1
2022-12-17T07:57:40.745Z,1008.1
2022-12-17T07:58:56.981Z,1008.1
2022-12-17T08:00:13.221Z,1008.2
2022-12-17T08:01:29.476Z,1008.2
2022-12-17T08:02:45.715Z,1008.2
2022-12-17T08:04:01.961Z,1008.2
2022-12-17T08:05:17.214Z,1008.2
2022-12-17T08:06:33.443Z,1008.3
2022-12-17T08:07:49.688Z,1008.4
2022-12-17T08:09:05.929Z,1008.4
2022-12-17T08:10:22.164Z,1008.4
2022-12-17T08:11:38.404Z,1008.4
2022-12-17T08:12:54.653Z,1008.5
2022-12-17T08:14:10.899Z,1008.5
2022-12-17T08:15:27.142Z,1008.5
2022-12-17T08:16:43.367Z,1008.5
2022-12-17T08:17:59.623Z,1008.6
2022-12-17T08:19:15.860Z,1008.6
2022-12-17T08:20:31.120Z,1008.6
2022-12-17T08:21:47.348Z,1008.6
2022-12-17T08:23:03.597Z,1008.6
2022-12-17T08:24:19.832Z,1008.7
2022-12-17T08:25:36.073Z,1008.7
2022-12-17T08:26:52.317Z,1008.8
2022-12-17T08:28:08.567Z,1008.8
2022-12-17T08:29:24.802Z,1008.8
2022-12-17T08:30:41.040Z,1008.8
2022-12-17T08:31:57.283Z,1008.8
2022-12-17T08:33:13.517Z,1008.8
2022-12-17T08:34:29.759Z,1008.9
2022-12-17T08:35:46.005Z,1008.8
2022-12-17T08:37:01.247Z,1008.8
2022-12-17T08:38:17.503Z,1008.9
2022-12-17T08:39:33.743Z,1008.9
2022-12-17T08:40:49.985Z,1008.8
2022-12-17T08:42:06.211Z,1008.9
2022-12-17T08:43:22.467Z,1008.8
2022-12-17T08:44:38.703Z,1008.9
2022-12-17T08:45:54.938Z,1009
2022-12-17T08:47:11.190Z,1009
2022-12-17T08:48:27.421Z,1009.1
2022-12-17T08:49:43.665Z,1009
2022-12-17T08:50:59.906Z,1009.1
2022-12-17T08:52:16.153Z,1009.1
2022-12-17T08:54:47.642Z,1009.1
2022-12-17T08:56:03.886Z,1009.1
2022-12-17T08:57:20.113Z,1009.1
2022-12-17T08:58:36.365Z,1009.1
2022-12-17T08:59:52.601Z,1009.1
2022-12-17T09:01:08.840Z,1009.1
2022-12-17T09:02:25.081Z,1009.1
2022-12-17T09:03:41.324Z,1009.1
2022-12-17T09:04:57.562Z,1009.2
2022-12-17T09:06:13.797Z,1009.1
2022-12-17T09:07:30.035Z,1009.1
2022-12-17T09:08:46.282Z,1009.1
2022-12-17T09:10:01.537Z,1009.2
2022-12-17T09:11:17.776Z,1009.2
2022-12-17T09:12:34.012Z,1009.1
2022-12-17T09:13:50.258Z,1009.2
2022-12-17T09:15:06.492Z,1009.2
2022-12-17T09:16:22.751Z,1009.1
2022-12-17T09:17:38.994Z,1009.1
2022-12-17T09:18:55.231Z,1009.2
2022-12-17T09:20:11.470Z,1009.2
2022-12-17T09:21:27.706Z,1009.1
2022-12-17T09:22:43.947Z,1009.1
2022-12-17T09:24:00.187Z,1009.1
2022-12-17T09:25:16.415Z,1009.1
2022-12-17T09:26:32.669Z,1009.1
2022-12-17T09:27:47.925Z,1009.1
2022-12-17T09:29:04.165Z,1009.1
2022-12-17T09:30:20.399Z,1009.1
2022-12-17T09:31:36.636Z,1009.2
2022-12-17T09:32:52.876Z,1009.2
2022-12-17T09:34:09.121Z,1009.2
2022-12-17T09:35:25.374Z,1009.2
2022-12-17T09:36:41.612Z,1009.2
2022-12-17T09:37:57.838Z,1009.2
2022-12-17T09:39:14.079Z,1009.2
2022-12-17T09:40:30.321Z,1009.3
2022-12-17T09:41:46.564Z,1009.2
2022-12-17T09:43:02.803Z,1009.2
2022-12-17T09:44:19.042Z,1009.2
2022-12-17T09:45:34.304Z,1009.2
2022-12-17T09:46:50.543Z,1009.2
2022-12-17T09:48:06.789Z,1009.2
2022-12-17T09:49:23.026Z,1009.3
2022-12-17T09:50:39.256Z,1009.3
2022-12-17T09:51:55.499Z,1009.2
2022-12-17T09:53:11.751Z,1009.3
2022-12-17T09:54:27.987Z,1009.3
2022-12-17T09:55:44.221Z,1009.3
2022-12-17T09:57:00.474Z,1009.3
2022-12-17T09:58:16.715Z,1009.3
2022-12-17T09:59:32.942Z,1009.3
2022-12-17T10:00:49.181Z,1009.3
2022-12-17T10:02:05.425Z,1009.3
2022-12-17T10:03:20.682Z,1009.4
2022-12-17T10:04:36.932Z,1009.3
2022-12-17T10:05:53.159Z,1009.4
2022-12-17T10:07:09.398Z,1009.4
2022-12-17T10:08:25.644Z,1009.4
2022-12-17T10:09:41.879Z,1009.4
2022-12-17T10:10:58.138Z,1009.5
2022-12-17T10:12:14.375Z,1009.4
2022-12-17T10:13:30.615Z,1009.5
2022-12-17T10:14:46.858Z,1009.4
2022-12-17T10:16:03.084Z,1009.4
2022-12-17T10:17:19.321Z,1009.4
2022-12-17T10:18:35.559Z,1009.4
2022-12-17T10:19:51.802Z,1009.4
2022-12-17T10:21:07.062Z,1009.5
2022-12-17T10:22:23.299Z,1009.5
2022-12-17T10:23:39.547Z,1009.4
2022-12-17T10:24:55.788Z,1009.4
2022-12-17T10:26:12.021Z,1009.5
2022-12-17T10:27:28.260Z,1009.5
2022-12-17T10:28:44.516Z,1009.5
2022-12-17T10:30:00.742Z,1009.5
2022-12-17T10:31:16.981Z,1009.5
2022-12-17T10:32:33.237Z,1009.5
2022-12-17T10:33:49.474Z,1009.5
2022-12-17T10:35:05.702Z,1009.5
2022-12-17T10:36:21.954Z,1009.6
2022-12-17T10:37:38.185Z,1009.6
2022-12-17T10:38:53.452Z,1009.6
2022-12-17T10:40:09.699Z,1009.6
2022-12-17T10:41:25.922Z,1009.6
2022-12-17T10:42:42.178Z,1009.7
2022-12-17T10:43:58.407Z,1009.7
2022-12-17T10:45:14.638Z,1009.7
2022-12-17T10:46:30.889Z,1009.7
2022-12-17T10:47:47.129Z,1009.7
2022-12-17T10:49:03.365Z,1009.7
2022-12-17T10:50:19.000Z,1009.7
2022-12-17T10:51:35.840Z,1009.7
2022-12-17T10:52:52.081Z,1009.7
2022-12-17T10:54:08.318Z,1009.7
2022-12-17T10:55:24.577Z,1009.7
2022-12-17T10:56:39.835Z,1009.7
2022-12-17T10:57:56.059Z,1009.7
2022-12-17T10:59:12.311Z,1009.7
2022-12-17T11:00:28.546Z,1009.7
2022-12-17T11:01:44.798Z,1009.7
2022-12-17T11:03:01.031Z,1009.7
2022-12-17T11:04:17.278Z,1009.7
2022-12-17T11:05:33.515Z,1009.7
2022-12-17T11:06:49.741Z,1009.7
2022-12-17T11:08:05.994Z,1009.7
2022-12-17T11:09:22.217Z,1009.7
2022-12-17T11:10:38.463Z,1009.8
2022-12-17T11:11:54.718Z,1009.8
2022-12-17T11:13:10.947Z,1009.9
2022-12-17T11:14:26.199Z,1009.9
2022-12-17T11:15:42.445Z,1010
2022-12-17T11:16:58.676Z,1009.9
2022-12-17T11:18:14.925Z,1010
2022-12-17T11:19:31.173Z,1010
2022-12-17T11:20:47.413Z,1009.9
2022-12-17T11:22:03.645Z,1009.9
2022-12-17T11:23:19.895Z,1009.9
2022-12-17T11:24:36.144Z,1009.8
2022-12-17T11:25:52.366Z,1009.9
2022-12-17T11:27:08.619Z,1009.9
2022-12-17T11:28:24.849Z,1009.8
2022-12-17T11:29:41.095Z,1009.9
2022-12-17T11:30:57.465Z,1009.9
2022-12-17T11:32:13.700Z,1009.8
2022-12-17T11:33:29.932Z,1009.8
2022-12-17T11:34:46.172Z,1009.9
2022-12-17T11:36:02.406Z,1009.8
2022-12-17T11:37:18.649Z,1009.8
2022-12-17T11:38:34.904Z,1009.8
2022-12-17T11:39:51.138Z,1009.9
2022-12-17T11:41:07.368Z,1009.9
2022-12-17T11:42:23.614Z,1009.9
2022-12-17T11:43:39.865Z,1009.9
2022-12-17T11:44:56.105Z,1009.9
2022-12-17T11:46:12.347Z,1009.9
2022-12-17T11:47:27.590Z,1009.9
2022-12-17T11:48:43.827Z,1009.9
2022-12-17T11:50:00.067Z,1009.9
2022-12-17T11:51:16.319Z,1009.9
2022-12-17T11:52:32.556Z,1010
2022-12-17T11:53:48.788Z,1009.9
2022-12-17T11:55:05.034Z,1009.9
2022-12-17T11:56:21.271Z,1009.9
2022-12-17T11:57:37.507Z,1009.9
2022-12-17T11:58:53.752Z,1009.9
2022-12-17T12:00:10.004Z,1010
2022-12-17T12:01:26.240Z,1009.9
2022-12-17T12:02:42.480Z,1009.9
2022-12-17T12:03:57.727Z,1009.9
2022-12-17T12:05:13.977Z,1009.9
2022-12-17T12:06:30.215Z,1010
2022-12-17T12:07:46.455Z,1010
2022-12-17T12:09:02.693Z,1010
2022-12-17T12:10:18.937Z,1010.1
2022-12-17T12:11:35.179Z,1010
2022-12-17T12:12:51.411Z,1010
2022-12-17T12:14:07.658Z,1010.1
2022-12-17T12:15:23.905Z,1010
2022-12-17T12:16:40.131Z,1010
2022-12-17T12:17:56.388Z,1010
2022-12-17T12:19:12.621Z,1010
2022-12-17T12:20:27.870Z,1010.1
2022-12-17T12:21:44.109Z,1010.1
2022-12-17T12:23:00.357Z,1010.1
2022-12-17T12:24:16.000Z,1010.1
2022-12-17T12:25:32.000Z,1010.1
2022-12-17T12:26:49.079Z,1010.1
2022-12-17T12:28:05.324Z,1010.3
2022-12-17T12:29:21.563Z,1010.2
2022-12-17T12:30:37.808Z,1010.2
2022-12-17T12:31:54.042Z,1010.2
2022-12-17T12:33:10.282Z,1010.3
2022-12-17T12:34:26.530Z,1010.3
2022-12-17T12:35:41.771Z,1010.3
2022-12-17T12:36:58.020Z,1010.2
2022-12-17T12:38:14.265Z,1010.2
2022-12-17T12:39:30.503Z,1010.2
2022-12-17T12:40:46.753Z,1010.2
2022-12-17T12:42:02.981Z,1010.3
2022-12-17T12:43:19.221Z,1010.3
2022-12-17T12:44:35.470Z,1010.3
2022-12-17T12:45:51.697Z,1010.2
2022-12-17T12:47:07.938Z,1010.3
2022-12-17T12:48:24.183Z,1010.3
2022-12-17T12:49:40.424Z,1010.3
2022-12-17T12:50:56.657Z,1010.3
2022-12-17T12:52:12.909Z,1010.3
2022-12-17T12:53:28.169Z,1010.3
2022-12-17T12:54:44.396Z,1010.3
2022-12-17T12:56:00.646Z,1010.4
2022-12-17T12:57:16.878Z,1010.5
2022-12-17T12:58:33.128Z,1010.4
2022-12-17T12:59:49.358Z,1010.4
2022-12-17T13:01:05.606Z,1010.4
2022-12-17T13:02:21.844Z,1010.5
2022-12-17T13:03:38.095Z,1010.4
2022-12-17T13:04:54.331Z,1010.4
2022-12-17T13:06:10.566Z,1010.4
2022-12-17T13:07:26.799Z,1010.4
2022-12-17T13:08:43.055Z,1010.5
2022-12-17T13:09:58.298Z,1010.4
2022-12-17T13:11:14.553Z,1010.4
2022-12-17T13:12:30.777Z,1010.5
2022-12-17T13:13:47.030Z,1010.5
2022-12-17T13:15:03.257Z,1010.5
2022-12-17T13:16:19.498Z,1010.5
2022-12-17T13:17:35.754Z,1010.5
2022-12-17T13:18:51.988Z,1010.5
2022-12-17T13:20:08.221Z,1010.5
2022-12-17T13:21:24.475Z,1010.6
2022-12-17T13:22:40.719Z,1010.6
2022-12-17T13:23:56.940Z,1010.6
2022-12-17T13:25:13.194Z,1010.5
2022-12-17T13:26:28.440Z,1010.6
2022-12-17T13:27:44.684Z,1010.6
2022-12-17T13:29:00.917Z,1010.6
2022-12-17T13:30:17.380Z,1010.6
2022-12-17T13:31:33.635Z,1010.6
2022-12-17T13:32:49.864Z,1010.7
2022-12-17T13:34:06.111Z,1010.6
2022-12-17T13:35:22.352Z,1010.7
2022-12-17T13:36:38.586Z,1010.6
2022-12-17T13:37:54.823Z,1010.8
2022-12-17T13:39:11.064Z,1010.8
2022-12-17T13:40:27.311Z,1010.8
2022-12-17T13:41:43.548Z,1010.8
2022-12-17T13:42:58.802Z,1010.8
2022-12-17T13:44:15.049Z,1010.8
2022-12-17T13:45:31.291Z,1010.9
2022-12-17T13:46:47.524Z,1010.8
2022-12-17T13:48:03.765Z,1010.8
2022-12-17T13:49:20.022Z,1010.9
2022-12-17T13:50:36.245Z,1010.8
2022-12-17T13:51:52.000Z,1010.9
2022-12-17T13:53:08.728Z,1010.9
2022-12-17T13:54:24.961Z,1011
2022-12-17T13:55:41.211Z,1010.9
2022-12-17T13:56:57.465Z,1010.9
2022-12-17T13:58:13.686Z,1010.9
2022-12-17T13:59:29.939Z,1011
2022-12-17T14:00:45.192Z,1011
2022-12-17T14:02:01.433Z,1011
2022-12-17T14:03:17.690Z,1011
2022-12-17T14:04:33.978Z,1011
2022-12-17T14:05:50.217Z,1011
2022-12-17T14:07:06.470Z,1011
2022-12-17T14:08:22.712Z,1011.1
2022-12-17T14:09:38.941Z,1011
2022-12-17T14:10:55.178Z,1011.1
2022-12-17T14:12:11.424Z,1011.1
2022-12-17T14:13:27.662Z,1011.2
2022-12-17T14:14:43.894Z,1011.2
2022-12-17T14:16:00.151Z,1011.2
2022-12-17T14:17:16.381Z,1011.2
2022-12-17T14:18:31.632Z,1011.2
2022-12-17T14:19:47.880Z,1011.2
2022-12-17T14:21:04.124Z,1011.2
2022-12-17T14:22:20.376Z,1011.3
2022-12-17T14:23:36.605Z,1011.3
2022-12-17T14:24:52.840Z,1011.3
2022-12-17T14:26:09.079Z,1011.3
2022-12-17T14:27:25.327Z,1011.3
2022-12-17T14:28:41.561Z,1011.3
2022-12-17T14:29:57.808Z,1011.3
2022-12-17T14:31:14.046Z,1011.3
2022-12-17T14:32:30.282Z,1011.3
2022-12-17T14:33:46.519Z,1011.3
2022-12-17T14:35:02.768Z,1011.3
2022-12-17T14:36:19.129Z,1011.3
2022-12-17T14:37:35.373Z,1011.3
2022-12-17T14:38:51.625Z,1011.4
2022-12-17T14:40:07.844Z,1011.3
2022-12-17T14:41:24.085Z,1011.4
2022-12-17T14:42:40.333Z,1011.4
2022-12-17T14:43:56.575Z,1011.3
2022-12-17T14:45:12.806Z,1011.4
2022-12-17T14:46:29.059Z,1011.4
2022-12-17T14:47:45.302Z,1011.4
2022-12-17T14:49:01.534Z,1011.4
2022-12-17T14:50:17.780Z,1011.5
2022-12-17T14:51:34.005Z,1011.5
2022-12-17T14:52:49.279Z,1011.5
2022-12-17T14:54:05.519Z,1011.5
2022-12-17T14:55:21.758Z,1011.6
2022-12-17T14:56:37.992Z,1011.5
2022-12-17T14:57:54.230Z,1011.6
2022-12-17T14:59:10.477Z,1011.6
2022-12-17T15:00:26.717Z,1011.6
2022-12-17T15:01:42.970Z,1011.6
2022-12-17T15:02:59.194Z,1011.6
2022-12-17T15:04:15.433Z,1011.6
2022-12-17T15:05:31.666Z,1011.5
2022-12-17T15:06:47.919Z,1011.5
2022-12-17T15:08:04.157Z,1011.5
2022-12-17T15:09:19.422Z,1011.5
2022-12-17T15:10:35.651Z,1011.5
2022-12-17T15:11:51.902Z,1011.5
2022-12-17T15:13:08.142Z,1011.6
2022-12-17T15:14:24.376Z,1011.6
2022-12-17T15:15:40.630Z,1011.6
2022-12-17T15:16:56.868Z,1011.6
2022-12-17T15:18:13.105Z,1011.6
2022-12-17T15:19:29.340Z,1011.6
2022-12-17T15:20:45.576Z,1011.6
2022-12-17T15:22:01.816Z,1011.6
2022-12-17T15:23:18.059Z,1011.6
2022-12-17T15:24:34.295Z,1011.6
2022-12-17T15:25:49.567Z,1011.7
2022-12-17T15:27:05.791Z,1011.7
2022-12-17T15:28:22.045Z,1011.7
2022-12-17T15:29:38.279Z,1011.8
2022-12-17T15:30:54.521Z,1011.7
2022-12-17T15:32:10.765Z,1011.7
2022-12-17T15:33:26.994Z,1011.7
2022-12-17T15:34:43.243Z,1011.7
2022-12-17T15:35:59.469Z,1011.7
2022-12-17T15:37:15.716Z,1011.7
2022-12-17T15:38:31.964Z,1011.7
2022-12-17T15:39:48.212Z,1011.7
2022-12-17T15:41:04.438Z,1011.7
2022-12-17T15:42:19.763Z,1011.7
2022-12-17T15:43:36.045Z,1011.7
2022-12-17T15:44:52.333Z,1011.7
2022-12-17T15:46:08.625Z,1011.7
2022-12-17T15:47:24.937Z,1011.7
2022-12-17T15:48:41.217Z,1011.7
2022-12-17T15:49:57.515Z,1011.7
2022-12-17T15:51:13.821Z,1011.7
2022-12-17T15:52:30.102Z,1011.8
2022-12-17T15:53:46.397Z,1011.7
2022-12-17T15:55:02.708Z,1011.8
2022-12-17T15:56:18.990Z,1011.8
2022-12-17T15:57:35.290Z,1011.8